createdAt,value
2017-08-08T00:00:43.908Z,4.13
2017-08-08T00:03:11.755Z,7.20
2017-08-08T00:05:39.328Z,4.70
2017-08-08T00:08:06.888Z,5.07
2017-08-08T00:10:34.491Z,7.03
2017-08-08T00:13:02.083Z,7.03
2017-08-08T00:15:29.682Z,5.30
2017-08-08T00:17:57.294Z,9.93
2017-08-08T00:20:25.199Z,5.63
2017-08-08T00:22:52.766Z,6.80
2017-08-08T00:25:20.375Z,8.90
2017-08-08T00:27:47.955Z,8.87
2017-08-08T00:30:15.605Z,12.50
2017-08-08T00:32:43.193Z,10.33
2017-08-08T00:35:10.783Z,6.20
2017-08-08T00:37:39.437Z,6.83
2017-08-08T00:40:07.030Z,8.83
2017-08-08T00:42:35.579Z,10.83
2017-08-08T00:45:03.187Z,7.83
2017-08-08T00:47:30.768Z,7.70
2017-08-08T00:49:58.683Z,7.10
2017-08-08T00:52:26.284Z,6.20
2017-08-08T00:54:54.200Z,8.03
2017-08-08T00:57:21.777Z,7.40
2017-08-08T00:59:50.130Z,7.60
2017-08-08T01:02:17.729Z,7.10
2017-08-08T01:04:46.080Z,5.13
2017-08-08T01:07:13.696Z,4.80
2017-08-08T01:09:41.273Z,5.53
2017-08-08T01:12:09.147Z,6.20
2017-08-08T01:14:36.736Z,11.30
2017-08-08T01:17:04.300Z,5.50
2017-08-08T01:19:31.901Z,9.20
2017-08-08T01:21:59.492Z,7.60
2017-08-08T01:24:27.345Z,5.37
2017-08-08T01:26:54.912Z,6.60
2017-08-08T01:29:22.789Z,6.10
2017-08-08T01:31:50.370Z,6.80
2017-08-08T01:34:18.761Z,7.57
2017-08-08T01:36:47.119Z,9.27
2017-08-08T01:39:14.739Z,9.07
2017-08-08T01:41:42.328Z,6.17
2017-08-08T01:44:09.898Z,7.50
2017-08-08T01:46:37.871Z,6.30
2017-08-08T01:49:05.467Z,8.90
2017-08-08T01:51:33.035Z,6.83
2017-08-08T01:54:00.631Z,9.43
2017-08-08T01:56:28.207Z,9.23
2017-08-08T01:58:56.043Z,7.70
2017-08-08T02:01:23.620Z,5.23
2017-08-08T02:03:51.195Z,8.10
2017-08-08T02:06:18.903Z,10.30
2017-08-08T02:08:46.462Z,5.73
2017-08-08T02:11:14.339Z,7.47
2017-08-08T02:13:41.914Z,6.00
2017-08-08T02:16:09.516Z,8.73
2017-08-08T02:18:37.867Z,8.60
2017-08-08T02:21:05.445Z,7.20
2017-08-08T02:23:34.053Z,10.83
2017-08-08T02:26:01.652Z,8.03
2017-08-08T02:28:29.239Z,7.17
2017-08-08T02:30:56.883Z,7.93
2017-08-08T02:33:24.450Z,6.20
2017-08-08T02:35:52.305Z,7.47
2017-08-08T02:38:19.883Z,5.00
2017-08-08T02:40:47.459Z,6.03
2017-08-08T02:43:15.835Z,5.33
2017-08-08T02:45:44.186Z,10.60
2017-08-08T02:48:11.781Z,5.60
2017-08-08T02:50:40.120Z,7.07
2017-08-08T02:53:08.075Z,9.47
2017-08-08T02:55:35.640Z,6.10
2017-08-08T02:58:03.219Z,6.53
2017-08-08T03:00:30.811Z,7.53
2017-08-08T03:02:58.366Z,9.40
2017-08-08T03:05:25.961Z,13.30
2017-08-08T03:07:53.531Z,7.93
2017-08-08T03:10:21.400Z,11.30
2017-08-08T03:12:49.037Z,7.63
2017-08-08T03:15:16.605Z,8.53
2017-08-08T03:17:44.204Z,7.80
2017-08-08T03:20:11.823Z,10.70
2017-08-08T03:22:39.691Z,7.40
2017-08-08T03:25:07.263Z,8.73
2017-08-08T03:27:34.826Z,7.07
2017-08-08T03:30:02.701Z,9.17
2017-08-08T03:32:30.283Z,6.83
2017-08-08T03:34:57.910Z,8.97
2017-08-08T03:37:25.485Z,6.13
2017-08-08T03:39:53.451Z,12.83
2017-08-08T03:42:21.036Z,6.70
2017-08-08T03:44:48.633Z,10.27
2017-08-08T03:47:16.233Z,9.10
2017-08-08T03:49:43.815Z,6.80
2017-08-08T03:52:12.167Z,6.50
2017-08-08T03:54:39.729Z,6.20
2017-08-08T03:57:07.678Z,6.57
2017-08-08T03:59:35.246Z,9.10
2017-08-08T04:02:02.814Z,5.57
2017-08-08T04:04:30.401Z,10.23
2017-08-08T04:06:58.795Z,7.97
2017-08-08T04:09:26.719Z,11.00
2017-08-08T04:11:54.305Z,8.83
2017-08-08T04:14:22.648Z,6.40
2017-08-08T04:16:50.231Z,6.57
2017-08-08T04:19:17.809Z,12.63
2017-08-08T04:21:46.178Z,7.13
2017-08-08T04:24:14.526Z,10.03
2017-08-08T04:26:42.482Z,7.87
2017-08-08T04:29:10.060Z,7.97
2017-08-08T04:31:37.634Z,8.47
2017-08-08T04:34:05.284Z,10.73
2017-08-08T04:36:32.885Z,9.87
2017-08-08T04:39:00.495Z,8.80
2017-08-08T04:41:28.089Z,9.00
2017-08-08T04:43:56.732Z,6.60
2017-08-08T04:46:24.420Z,8.90
2017-08-08T04:48:52.013Z,7.87
2017-08-08T04:51:19.617Z,8.67
2017-08-08T04:53:47.333Z,11.30
2017-08-08T04:56:15.015Z,6.10
2017-08-08T04:58:42.577Z,9.60
2017-08-08T05:01:10.462Z,6.67
2017-08-08T05:03:38.033Z,7.67
2017-08-08T05:06:05.609Z,7.47
2017-08-08T05:08:33.202Z,7.90
2017-08-08T05:11:00.788Z,11.70
2017-08-08T05:13:28.381Z,9.97
2017-08-08T05:15:55.975Z,5.43
2017-08-08T05:18:23.893Z,7.70
2017-08-08T05:20:51.482Z,7.30
2017-08-08T05:23:19.103Z,6.70
2017-08-08T05:25:46.799Z,7.50
2017-08-08T05:28:15.123Z,8.27
2017-08-08T05:30:43.020Z,6.37
2017-08-08T05:33:10.603Z,13.30
2017-08-08T05:35:38.198Z,14.07
2017-08-08T05:38:05.790Z,10.37
2017-08-08T05:40:33.358Z,6.57
2017-08-08T05:43:00.969Z,6.37
2017-08-08T05:45:28.548Z,7.50
2017-08-08T05:47:56.517Z,10.00
2017-08-08T05:50:24.095Z,9.20
2017-08-08T05:52:51.675Z,13.93
2017-08-08T05:55:19.297Z,8.20
2017-08-08T05:57:46.877Z,7.17
2017-08-08T06:00:14.502Z,6.53
2017-08-08T06:02:42.057Z,7.87
2017-08-08T06:05:10.074Z,13.50
2017-08-08T06:07:37.652Z,9.53
2017-08-08T06:10:05.214Z,7.00
2017-08-08T06:12:32.808Z,8.97
2017-08-08T06:15:00.372Z,8.70
2017-08-08T06:17:27.990Z,10.90
2017-08-08T06:19:55.562Z,11.43
2017-08-08T06:22:24.258Z,11.87
2017-08-08T06:24:52.599Z,9.73
2017-08-08T06:27:20.166Z,7.80
2017-08-08T06:29:47.742Z,15.20
2017-08-08T06:32:16.120Z,10.20
2017-08-08T06:34:44.490Z,10.63
2017-08-08T06:37:12.253Z,11.03
2017-08-08T06:39:40.274Z,10.80
2017-08-08T06:42:07.848Z,11.70
2017-08-08T06:44:35.402Z,13.20
2017-08-08T06:47:03.014Z,15.87
2017-08-08T06:49:31.355Z,11.83
2017-08-08T06:51:59.334Z,14.57
2017-08-08T06:54:26.916Z,12.63
2017-08-08T06:56:55.298Z,9.37
2017-08-08T06:59:22.902Z,14.87
2017-08-08T07:01:50.479Z,18.63
2017-08-08T07:04:18.375Z,14.50
2017-08-08T07:06:45.986Z,13.83
2017-08-08T07:09:13.564Z,13.70
2017-08-08T07:11:41.159Z,16.40
2017-08-08T07:14:09.481Z,11.80
2017-08-08T07:16:37.073Z,12.70
2017-08-08T07:19:04.667Z,11.00
2017-08-08T07:21:33.316Z,12.10
2017-08-08T07:24:00.899Z,12.27
2017-08-08T07:26:29.243Z,10.33
2017-08-08T07:28:56.879Z,12.47
2017-08-08T07:31:24.464Z,12.27
2017-08-08T07:33:52.102Z,12.47
2017-08-08T07:36:19.676Z,16.03
2017-08-08T07:38:47.556Z,15.90
2017-08-08T07:41:15.160Z,17.00
2017-08-08T07:43:43.520Z,14.43
2017-08-08T07:46:12.130Z,13.03
2017-08-08T07:48:39.714Z,12.50
2017-08-08T07:51:07.319Z,10.33
2017-08-08T07:53:34.969Z,14.87
2017-08-08T07:56:03.002Z,11.83
2017-08-08T07:58:30.556Z,12.00
2017-08-08T08:00:58.138Z,12.83
2017-08-08T08:03:26.008Z,8.93
2017-08-08T08:05:54.197Z,10.27
2017-08-08T08:08:21.843Z,9.50
2017-08-08T08:10:49.407Z,7.63
2017-08-08T08:13:17.266Z,8.87
2017-08-08T08:15:44.869Z,9.80
2017-08-08T08:18:13.211Z,8.80
2017-08-08T08:20:40.832Z,8.93
2017-08-08T08:23:08.402Z,8.87
2017-08-08T08:25:35.984Z,7.70
2017-08-08T08:28:03.578Z,7.23
2017-08-08T08:30:31.455Z,6.83
2017-08-08T08:32:59.795Z,5.80
2017-08-08T08:35:27.369Z,16.50
2017-08-08T08:37:54.968Z,10.83
2017-08-08T08:40:22.542Z,9.33
2017-08-08T08:42:50.140Z,6.77
2017-08-08T08:45:17.734Z,5.43
2017-08-08T08:47:46.376Z,7.20
2017-08-08T08:50:13.953Z,6.60
2017-08-08T08:52:41.545Z,8.10
2017-08-08T08:55:09.175Z,7.07
2017-08-08T08:57:36.749Z,6.27
2017-08-08T09:00:04.417Z,6.30
2017-08-08T09:02:32.774Z,5.77
2017-08-08T09:05:00.730Z,11.73
2017-08-08T09:07:29.380Z,11.03
2017-08-08T09:09:56.980Z,6.97
2017-08-08T09:12:24.599Z,7.00
2017-08-08T09:14:52.180Z,6.63
2017-08-08T09:17:19.784Z,7.20
2017-08-08T09:19:48.212Z,10.20
2017-08-08T09:22:16.107Z,10.10
2017-08-08T09:24:43.682Z,10.67
2017-08-08T09:27:11.280Z,11.60
2017-08-08T09:29:38.893Z,11.60
2017-08-08T09:32:06.510Z,6.17
2017-08-08T09:34:34.094Z,7.90
2017-08-08T09:37:01.666Z,11.43
2017-08-08T09:39:29.651Z,10.73
2017-08-08T09:41:57.985Z,7.30
2017-08-08T09:44:25.577Z,8.80
2017-08-08T09:46:53.190Z,13.37
2017-08-08T09:49:20.770Z,7.87
2017-08-08T09:51:48.377Z,9.57
2017-08-08T09:54:16.708Z,17.20
2017-08-08T09:56:44.646Z,10.63
2017-08-08T09:59:12.256Z,5.97
2017-08-08T10:01:39.885Z,10.90
2017-08-08T10:04:07.494Z,14.03
2017-08-08T10:06:35.851Z,8.57
2017-08-08T10:09:03.438Z,8.30
2017-08-08T10:11:31.859Z,7.17
2017-08-08T10:13:59.820Z,9.87
2017-08-08T10:16:27.407Z,7.60
2017-08-08T10:18:55.021Z,6.37
2017-08-08T10:21:22.642Z,8.27
2017-08-08T10:23:50.222Z,7.47
2017-08-08T10:26:17.813Z,7.13
2017-08-08T10:28:45.401Z,9.03
2017-08-08T10:31:13.322Z,6.20
2017-08-08T10:33:40.888Z,9.67
2017-08-08T10:36:08.457Z,7.27
2017-08-08T10:38:36.091Z,12.00
2017-08-08T10:41:03.685Z,9.23
2017-08-08T10:43:31.288Z,7.50
2017-08-08T10:45:58.864Z,15.30
2017-08-08T10:48:27.212Z,11.60
2017-08-08T10:50:55.174Z,9.13
2017-08-08T10:53:22.788Z,7.80
2017-08-08T10:55:50.368Z,10.00
2017-08-08T10:58:18.037Z,9.17
2017-08-08T11:00:45.699Z,9.90
2017-08-08T11:03:13.666Z,9.30
2017-08-08T11:05:41.244Z,7.00
2017-08-08T11:08:08.923Z,14.80
2017-08-08T11:10:36.538Z,15.23
2017-08-08T11:13:04.154Z,9.13
2017-08-08T11:15:32.009Z,6.77
2017-08-08T11:17:59.546Z,9.13
2017-08-08T11:20:27.131Z,9.07
2017-08-08T11:22:54.725Z,5.43
2017-08-08T11:25:22.333Z,6.67
2017-08-08T11:27:50.187Z,6.00
2017-08-08T11:30:17.764Z,5.40
2017-08-08T11:32:45.769Z,6.13
2017-08-08T11:35:14.095Z,7.97
2017-08-08T11:37:41.672Z,6.70
2017-08-08T11:40:09.300Z,5.63
2017-08-08T11:42:36.870Z,9.97
2017-08-08T11:45:04.471Z,7.70
2017-08-08T11:47:32.030Z,6.27
2017-08-08T11:49:59.904Z,10.50
2017-08-08T11:52:28.268Z,6.87
2017-08-08T11:54:55.842Z,6.60
2017-08-08T11:57:24.223Z,9.80
2017-08-08T11:59:52.577Z,5.00
2017-08-08T12:02:20.976Z,6.97
2017-08-08T12:04:49.332Z,7.80
2017-08-08T12:07:17.200Z,6.73
2017-08-08T12:09:44.779Z,5.70
2017-08-08T12:12:13.147Z,5.03
2017-08-08T12:14:40.751Z,6.03
2017-08-08T12:17:08.436Z,4.20
2017-08-08T12:19:36.027Z,7.90
2017-08-08T12:22:03.605Z,3.40
2017-08-08T12:24:32.248Z,5.77
2017-08-08T12:26:59.842Z,3.00
2017-08-08T12:29:27.439Z,6.13
2017-08-08T12:31:55.029Z,3.10
2017-08-08T12:34:22.663Z,3.77
2017-08-08T12:36:50.264Z,5.53
2017-08-08T12:39:17.864Z,2.83
2017-08-08T12:41:45.767Z,2.47
2017-08-08T12:44:13.365Z,4.70
2017-08-08T12:46:40.939Z,3.70
2017-08-08T12:49:09.351Z,3.23
2017-08-08T12:51:36.931Z,3.13
2017-08-08T12:54:04.579Z,5.33
2017-08-08T12:56:32.371Z,3.80
2017-08-08T12:59:00.435Z,4.20
2017-08-08T13:01:28.042Z,2.80
2017-08-08T13:03:55.631Z,2.67
2017-08-08T13:06:24.097Z,7.10
2017-08-08T13:08:51.689Z,4.00
2017-08-08T13:11:19.291Z,8.93
2017-08-08T13:13:46.991Z,2.70
2017-08-08T13:16:14.885Z,3.17
2017-08-08T13:18:42.676Z,2.63
2017-08-08T13:21:10.261Z,3.30
2017-08-08T13:23:37.883Z,2.67
2017-08-08T13:26:05.467Z,4.83
2017-08-08T13:28:33.841Z,2.60
2017-08-08T13:31:02.257Z,4.73
2017-08-08T13:33:30.151Z,3.50
2017-08-08T13:35:57.755Z,2.07
2017-08-08T13:38:25.334Z,3.57
2017-08-08T13:40:53.040Z,4.27
2017-08-08T13:43:20.641Z,3.87
2017-08-08T13:45:48.296Z,2.00
2017-08-08T13:48:16.661Z,3.80
2017-08-08T13:50:45.326Z,2.13
2017-08-08T13:53:12.967Z,4.23
2017-08-08T13:55:41.306Z,2.33
2017-08-08T13:58:08.925Z,3.40
2017-08-08T14:00:36.512Z,4.33
2017-08-08T14:03:04.880Z,3.43
2017-08-08T14:05:32.460Z,4.37
2017-08-08T14:08:00.731Z,3.27
2017-08-08T14:10:29.076Z,2.20
2017-08-08T14:12:56.668Z,5.03
2017-08-08T14:15:25.059Z,3.40
2017-08-08T14:17:52.658Z,4.03
2017-08-08T14:20:20.526Z,2.60
2017-08-08T14:22:48.099Z,3.57
2017-08-08T14:25:15.700Z,2.33
2017-08-08T14:27:43.341Z,4.03
2017-08-08T14:30:10.912Z,10.03
2017-08-08T14:32:39.663Z,17.83
2017-08-08T14:35:07.268Z,2.90
2017-08-08T14:37:34.850Z,3.37
2017-08-08T14:40:02.437Z,3.00
2017-08-08T14:42:30.024Z,3.50
2017-08-08T14:44:58.755Z,3.80
2017-08-08T14:47:26.366Z,3.43
2017-08-08T14:49:53.922Z,2.67
2017-08-08T14:52:21.533Z,3.40
2017-08-08T14:54:49.109Z,3.03
2017-08-08T14:57:16.724Z,2.17
2017-08-08T14:59:45.082Z,4.97
2017-08-08T15:02:13.744Z,5.00
2017-08-08T15:04:41.316Z,2.57
2017-08-08T15:07:08.913Z,2.23
2017-08-08T15:09:36.538Z,3.23
2017-08-08T15:12:04.124Z,2.53
2017-08-08T15:14:31.995Z,3.53
2017-08-08T15:16:59.566Z,2.70
2017-08-08T15:19:27.248Z,3.30
2017-08-08T15:21:54.858Z,3.27
2017-08-08T15:24:22.480Z,2.97
2017-08-08T15:26:50.132Z,4.00
2017-08-08T15:29:17.886Z,2.80
2017-08-08T15:31:45.729Z,3.10
2017-08-08T15:34:13.322Z,3.47
2017-08-08T15:36:40.923Z,5.83
2017-08-08T15:39:08.568Z,2.53
2017-08-08T15:41:36.150Z,3.60
2017-08-08T15:44:04.526Z,4.30
2017-08-08T15:46:32.895Z,4.57
2017-08-08T15:49:00.954Z,3.43
2017-08-08T15:51:28.537Z,3.83
2017-08-08T15:53:56.916Z,2.90
2017-08-08T15:56:25.274Z,3.57
2017-08-08T15:58:52.868Z,2.60
2017-08-08T16:01:21.237Z,4.10
2017-08-08T16:03:48.817Z,3.03
2017-08-08T16:06:16.727Z,2.83
2017-08-08T16:08:45.089Z,4.73
2017-08-08T16:11:12.742Z,3.57
2017-08-08T16:13:40.400Z,3.13
2017-08-08T16:16:07.972Z,3.97
2017-08-08T16:18:35.582Z,2.60
2017-08-08T16:21:03.952Z,3.97
2017-08-08T16:23:32.721Z,3.60
2017-08-08T16:26:00.340Z,3.37
2017-08-08T16:28:28.048Z,3.17
2017-08-08T16:30:55.649Z,6.53
2017-08-08T16:33:23.246Z,4.30
2017-08-08T16:35:50.870Z,3.40
2017-08-08T16:38:18.469Z,3.70
2017-08-08T16:40:46.522Z,7.53
2017-08-08T16:43:14.113Z,3.23
2017-08-08T16:45:41.745Z,5.40
2017-08-08T16:48:09.308Z,3.43
2017-08-08T16:50:37.072Z,2.70
2017-08-08T16:53:04.863Z,3.57
2017-08-08T16:55:32.451Z,3.47
2017-08-08T16:58:01.166Z,2.40
2017-08-08T17:00:28.769Z,2.53
2017-08-08T17:02:56.414Z,4.40
2017-08-08T17:05:24.065Z,3.87
2017-08-08T17:07:51.647Z,4.60
2017-08-08T17:10:19.238Z,3.20
2017-08-08T17:12:47.604Z,5.07
2017-08-08T17:15:15.487Z,5.03
2017-08-08T17:17:43.282Z,5.20
2017-08-08T17:20:10.875Z,3.83
2017-08-08T17:22:38.463Z,8.97
2017-08-08T17:25:06.070Z,3.83
2017-08-08T17:27:33.735Z,5.40
2017-08-08T17:30:01.313Z,5.70
2017-08-08T17:32:29.991Z,5.97
2017-08-08T17:34:57.625Z,4.90
2017-08-08T17:37:25.247Z,5.90
2017-08-08T17:39:53.819Z,6.10
2017-08-08T17:42:21.389Z,7.90
2017-08-08T17:44:49.772Z,8.03
2017-08-08T17:47:17.361Z,9.17
2017-08-08T17:49:45.608Z,11.60
2017-08-08T17:52:13.217Z,4.20
2017-08-08T17:54:40.820Z,8.30
2017-08-08T17:57:08.479Z,6.93
2017-08-08T17:59:36.098Z,8.53
2017-08-08T18:02:03.710Z,5.70
2017-08-08T18:04:32.081Z,13.57
2017-08-08T18:07:00.741Z,12.53
2017-08-08T18:09:28.330Z,11.20
2017-08-08T18:11:56.729Z,8.07
2017-08-08T18:14:24.344Z,8.30
2017-08-08T18:16:51.933Z,15.27
2017-08-08T18:19:20.307Z,10.93
2017-08-08T18:21:48.674Z,9.17
2017-08-08T18:24:17.332Z,13.57
2017-08-08T18:26:44.906Z,8.27
2017-08-08T18:29:12.485Z,6.50
2017-08-08T18:31:40.861Z,7.13
2017-08-08T18:34:08.464Z,6.17
2017-08-08T18:36:36.055Z,6.97
2017-08-08T18:39:03.658Z,4.97
2017-08-08T18:41:31.584Z,6.73
2017-08-08T18:43:59.178Z,10.57
2017-08-08T18:46:27.554Z,7.90
2017-08-08T18:48:55.941Z,13.80
2017-08-08T18:51:25.147Z,18.00
2017-08-08T18:53:53.532Z,9.93
2017-08-08T18:56:21.123Z,13.60
2017-08-08T18:58:49.862Z,9.57
2017-08-08T19:01:18.261Z,8.07
2017-08-08T19:03:46.085Z,7.00
2017-08-08T19:06:13.667Z,13.27
2017-08-08T19:08:42.044Z,7.03
2017-08-08T19:11:10.458Z,9.23
2017-08-08T19:13:38.108Z,5.00
2017-08-08T19:16:05.972Z,3.63
2017-08-08T19:18:33.607Z,11.90
2017-08-08T19:21:02.033Z,5.23
2017-08-08T19:23:29.680Z,3.80
2017-08-08T19:25:57.289Z,5.23
2017-08-08T19:28:25.986Z,5.80
2017-08-08T19:30:53.601Z,6.07
2017-08-08T19:33:21.565Z,8.10
2017-08-08T19:35:49.190Z,3.60
2017-08-08T19:38:17.600Z,5.43
2017-08-08T19:40:45.943Z,4.47
2017-08-08T19:43:13.984Z,13.03
2017-08-08T19:45:42.536Z,8.23
2017-08-08T19:48:11.198Z,3.83
2017-08-08T19:50:38.813Z,5.00
2017-08-08T19:53:06.421Z,2.80
2017-08-08T19:55:34.478Z,5.67
2017-08-08T19:58:02.520Z,6.60
2017-08-08T20:00:30.412Z,8.10
2017-08-08T20:02:58.798Z,2.10
2017-08-08T20:05:26.475Z,3.90
2017-08-08T20:07:54.070Z,4.43
2017-08-08T20:10:22.139Z,5.63
2017-08-08T20:12:49.990Z,5.80
2017-08-08T20:15:17.798Z,3.30
2017-08-08T20:17:45.619Z,4.23
2017-08-08T20:20:13.262Z,8.60
2017-08-08T20:22:40.975Z,6.87
2017-08-08T20:25:08.591Z,6.00
2017-08-08T20:27:36.173Z,4.67
2017-08-08T20:30:03.799Z,4.03
2017-08-08T20:32:31.430Z,10.60
2017-08-08T20:34:59.545Z,7.03
2017-08-08T20:37:27.160Z,9.20
2017-08-08T20:39:55.471Z,7.20
2017-08-08T20:42:23.090Z,7.17
2017-08-08T20:44:50.701Z,10.00
2017-08-08T20:47:18.279Z,9.87
2017-08-08T20:49:45.880Z,8.40
2017-08-08T20:52:14.829Z,4.93
2017-08-08T20:54:43.244Z,7.93
2017-08-08T20:57:10.837Z,5.03
2017-08-08T20:59:39.095Z,5.43
2017-08-08T21:02:06.725Z,8.20
2017-08-08T21:04:34.570Z,6.50
2017-08-08T21:07:02.164Z,6.90
2017-08-08T21:09:30.144Z,7.07
2017-08-08T21:11:58.515Z,5.10
2017-08-08T21:14:26.889Z,6.90
2017-08-08T21:16:54.607Z,5.37
2017-08-08T21:19:22.199Z,6.80
2017-08-08T21:21:50.170Z,4.27
2017-08-08T21:24:18.070Z,5.87
2017-08-08T21:26:45.664Z,5.60
2017-08-08T21:29:13.299Z,7.67
2017-08-08T21:31:40.917Z,6.57
2017-08-08T21:34:09.722Z,4.80
2017-08-08T21:36:38.099Z,4.23
2017-08-08T21:39:06.785Z,6.50
2017-08-08T21:41:35.142Z,5.33
2017-08-08T21:44:02.746Z,4.37
2017-08-08T21:46:30.395Z,6.40
2017-08-08T21:48:58.747Z,4.10
2017-08-08T21:51:26.366Z,2.53
2017-08-08T21:53:53.981Z,3.97
2017-08-08T21:56:21.849Z,3.07
2017-08-08T21:58:50.224Z,5.70
2017-08-08T22:01:17.787Z,3.47
2017-08-08T22:03:45.515Z,5.37
2017-08-08T22:06:13.123Z,6.27
2017-08-08T22:08:41.467Z,3.80
2017-08-08T22:11:09.101Z,4.23
2017-08-08T22:13:37.207Z,2.83
2017-08-08T22:16:04.792Z,4.77
2017-08-08T22:18:33.134Z,4.67
2017-08-08T22:21:00.749Z,5.10
2017-08-08T22:23:28.337Z,9.73
2017-08-08T22:25:55.932Z,3.60
2017-08-08T22:28:23.521Z,4.87
2017-08-08T22:30:51.471Z,4.90
2017-08-08T22:33:19.179Z,5.43
2017-08-08T22:35:46.765Z,9.70
2017-08-08T22:38:14.398Z,5.73
2017-08-08T22:40:41.971Z,3.90
2017-08-08T22:43:09.566Z,3.50
2017-08-08T22:45:37.908Z,8.27
2017-08-08T22:48:05.788Z,3.63
2017-08-08T22:50:33.364Z,5.03
2017-08-08T22:53:00.945Z,4.60
2017-08-08T22:55:28.634Z,6.53
2017-08-08T22:57:56.228Z,5.27
2017-08-08T23:00:23.800Z,5.63
2017-08-08T23:02:51.373Z,4.70
2017-08-08T23:05:19.969Z,3.43
2017-08-08T23:07:48.376Z,4.63
2017-08-08T23:10:15.961Z,4.73
2017-08-08T23:12:43.567Z,10.17
2017-08-08T23:15:11.902Z,4.90
2017-08-08T23:17:39.519Z,4.53
2017-08-08T23:20:07.092Z,7.03
2017-08-08T23:22:34.978Z,5.97
2017-08-08T23:25:02.543Z,5.20
2017-08-08T23:27:30.139Z,7.20
2017-08-08T23:29:58.524Z,4.53
2017-08-08T23:32:26.875Z,7.20
2017-08-08T23:34:54.495Z,5.37
2017-08-08T23:37:39.699Z,9.37
2017-08-08T23:40:07.319Z,6.60
2017-08-08T23:42:34.877Z,4.20
2017-08-08T23:45:02.484Z,10.07
2017-08-08T23:47:30.102Z,11.83
2017-08-08T23:49:58.517Z,6.57
2017-08-08T23:52:26.125Z,5.10
2017-08-08T23:54:53.701Z,5.00
2017-08-08T23:57:21.701Z,10.13
2017-08-08T23:59:49.448Z,10.00
